sensor_id;sensor_type;location;lat;lon;timestamp;pressure;altitude;pressure_sealevel;temperature;humidity
77574;BME280;66710;48.868;9.080;2023-07-22T00:01:37;97971.97;;;13.48;79.24
77574;BME280;66710;48.868;9.080;2023-07-22T00:04:02;97983.31;;;13.60;78.16
77574;BME280;66710;48.868;9.080;2023-07-22T00:06:28;97974.69;;;13.72;77.79
77574;BME280;66710;48.868;9.080;2023-07-22T00:08:53;97974.19;;;13.70;77.88
77574;BME280;66710;48.868;9.080;2023-07-22T00:11:19;97969.13;;;13.58;78.32
77574;BME280;66710;48.868;9.080;2023-07-22T00:13:45;97965.16;;;13.88;76.27
77574;BME280;66710;48.868;9.080;2023-07-22T00:16:10;97969.09;;;13.82;76.79
77574;BME280;66710;48.868;9.080;2023-07-22T00:18:36;97969.09;;;13.82;76.62
77574;BME280;66710;48.868;9.080;2023-07-22T00:21:01;97971.28;;;13.80;76.66
77574;BME280;66710;48.868;9.080;2023-07-22T00:23:27;97976.63;;;13.90;76.29
77574;BME280;66710;48.868;9.080;2023-07-22T00:25:52;97972.56;;;13.88;76.54
77574;BME280;66710;48.868;9.080;2023-07-22T00:28:17;97971.59;;;13.78;76.83
77574;BME280;66710;48.868;9.080;2023-07-22T00:30:43;97973.50;;;13.78;76.41
77574;BME280;66710;48.868;9.080;2023-07-22T00:33:09;97969.69;;;13.79;76.67
77574;BME280;66710;48.868;9.080;2023-07-22T00:35:35;97968.03;;;13.59;77.38
77574;BME280;66710;48.868;9.080;2023-07-22T00:38:00;97966.97;;;13.55;78.06
77574;BME280;66710;48.868;9.080;2023-07-22T00:40:27;97967.03;;;13.50;78.26
77574;BME280;66710;48.868;9.080;2023-07-22T00:42:52;97966.69;;;13.56;77.85
77574;BME280;66710;48.868;9.080;2023-07-22T00:45:18;97971.41;;;13.51;78.16
77574;BME280;66710;48.868;9.080;2023-07-22T00:47:44;97962.56;;;13.59;77.94
77574;BME280;66710;48.868;9.080;2023-07-22T00:50:09;97965.63;;;13.52;78.43
77574;BME280;66710;48.868;9.080;2023-07-22T00:52:35;97960.13;;;13.33;79.21
77574;BME280;66710;48.868;9.080;2023-07-22T00:55:02;97961.38;;;13.17;79.95
77574;BME280;66710;48.868;9.080;2023-07-22T00:57:28;97958.09;;;12.90;81.62
77574;BME280;66710;48.868;9.080;2023-07-22T00:59:54;97958.69;;;12.82;81.68
77574;BME280;66710;48.868;9.080;2023-07-22T01:02:21;97959.34;;;12.74;82.57
77574;BME280;66710;48.868;9.080;2023-07-22T01:04:49;97955.81;;;12.68;82.47
77574;BME280;66710;48.868;9.080;2023-07-22T01:07:15;97965.72;;;12.64;83.04
77574;BME280;66710;48.868;9.080;2023-07-22T01:09:42;97966.06;;;12.52;83.98
77574;BME280;66710;48.868;9.080;2023-07-22T01:12:08;97960.13;;;12.45;84.57
77574;BME280;66710;48.868;9.080;2023-07-22T01:14:35;97958.75;;;12.48;83.97
77574;BME280;66710;48.868;9.080;2023-07-22T01:17:05;97960.38;;;12.49;84.57
77574;BME280;66710;48.868;9.080;2023-07-22T01:19:32;97963.13;;;12.44;84.75
77574;BME280;66710;48.868;9.080;2023-07-22T01:21:59;97954.97;;;12.39;85.25
77574;BME280;66710;48.868;9.080;2023-07-22T01:24:25;97946.28;;;12.31;85.69
77574;BME280;66710;48.868;9.080;2023-07-22T01:26:51;97941.72;;;12.27;86.00
77574;BME280;66710;48.868;9.080;2023-07-22T01:29:16;97934.31;;;12.27;85.87
77574;BME280;66710;48.868;9.080;2023-07-22T01:31:47;97940.59;;;12.28;86.31
77574;BME280;66710;48.868;9.080;2023-07-22T01:34:12;97943.03;;;12.29;86.02
77574;BME280;66710;48.868;9.080;2023-07-22T01:36:37;97944.75;;;12.20;86.11
77574;BME280;66710;48.868;9.080;2023-07-22T01:39:03;97945.34;;;12.12;87.00
77574;BME280;66710;48.868;9.080;2023-07-22T01:41:31;97952.22;;;12.09;87.06
77574;BME280;66710;48.868;9.080;2023-07-22T01:43:56;97948.59;;;12.14;86.61
77574;BME280;66710;48.868;9.080;2023-07-22T01:46:21;97948.09;;;12.12;86.61
77574;BME280;66710;48.868;9.080;2023-07-22T01:48:47;97950.28;;;12.10;86.67
77574;BME280;66710;48.868;9.080;2023-07-22T01:51:12;97947.28;;;12.11;86.67
77574;BME280;66710;48.868;9.080;2023-07-22T01:53:37;97945.63;;;12.10;86.62
77574;BME280;66710;48.868;9.080;2023-07-22T01:56:03;97941.50;;;12.18;86.85
77574;BME280;66710;48.868;9.080;2023-07-22T01:58:30;97936.53;;;12.25;86.42
77574;BME280;66710;48.868;9.080;2023-07-22T02:00:58;97937.75;;;12.43;85.92
77574;BME280;66710;48.868;9.080;2023-07-22T02:03:23;97943.97;;;12.49;85.40
77574;BME280;66710;48.868;9.080;2023-07-22T02:05:49;97938.53;;;12.44;85.96
77574;BME280;66710;48.868;9.080;2023-07-22T02:08:14;97942.34;;;12.48;85.62
77574;BME280;66710;48.868;9.080;2023-07-22T02:10:39;97949.47;;;12.44;86.00
77574;BME280;66710;48.868;9.080;2023-07-22T02:13:05;97944.66;;;12.36;86.67
77574;BME280;66710;48.868;9.080;2023-07-22T02:15:32;97943.06;;;12.24;86.61
77574;BME280;66710;48.868;9.080;2023-07-22T02:17:58;97942.78;;;12.26;86.93
77574;BME280;66710;48.868;9.080;2023-07-22T02:20:23;97945.44;;;12.36;86.25
77574;BME280;66710;48.868;9.080;2023-07-22T02:22:51;97947.03;;;12.42;86.10
77574;BME280;66710;48.868;9.080;2023-07-22T02:25:17;97948.94;;;12.42;86.07
77574;BME280;66710;48.868;9.080;2023-07-22T02:27:43;97949.59;;;12.33;86.44
77574;BME280;66710;48.868;9.080;2023-07-22T02:30:09;97956.16;;;12.27;86.52
77574;BME280;66710;48.868;9.080;2023-07-22T02:32:38;97957.06;;;12.18;86.95
77574;BME280;66710;48.868;9.080;2023-07-22T02:35:06;97963.09;;;12.14;87.06
77574;BME280;66710;48.868;9.080;2023-07-22T02:37:32;97974.31;;;12.13;87.09
77574;BME280;66710;48.868;9.080;2023-07-22T02:39:57;97956.03;;;12.08;87.39
77574;BME280;66710;48.868;9.080;2023-07-22T02:42:22;97956.94;;;11.99;87.69
77574;BME280;66710;48.868;9.080;2023-07-22T02:44:48;97954.47;;;11.97;87.45
77574;BME280;66710;48.868;9.080;2023-07-22T02:47:13;97962.41;;;11.88;88.29
77574;BME280;66710;48.868;9.080;2023-07-22T02:49:39;97961.88;;;11.86;88.58
77574;BME280;66710;48.868;9.080;2023-07-22T02:52:05;97956.19;;;11.83;88.38
77574;BME280;66710;48.868;9.080;2023-07-22T02:54:32;97952.91;;;11.81;89.22
77574;BME280;66710;48.868;9.080;2023-07-22T02:56:57;97945.56;;;11.76;89.22
77574;BME280;66710;48.868;9.080;2023-07-22T02:59:23;97952.34;;;11.79;88.85
77574;BME280;66710;48.868;9.080;2023-07-22T03:01:49;97951.81;;;11.82;89.08
77574;BME280;66710;48.868;9.080;2023-07-22T03:04:15;97946.91;;;11.79;89.02
77574;BME280;66710;48.868;9.080;2023-07-22T03:06:40;97951.28;;;11.74;89.16
77574;BME280;66710;48.868;9.080;2023-07-22T03:09:07;97957.56;;;11.75;89.51
77574;BME280;66710;48.868;9.080;2023-07-22T03:11:32;97953.75;;;11.76;89.50
77574;BME280;66710;48.868;9.080;2023-07-22T03:13:59;97954.53;;;11.82;89.08
77574;BME280;66710;48.868;9.080;2023-07-22T03:16:25;97953.16;;;11.84;88.83
77574;BME280;66710;48.868;9.080;2023-07-22T03:18:50;97953.16;;;11.84;88.54
77574;BME280;66710;48.868;9.080;2023-07-22T03:21:15;97949.31;;;11.85;88.54
77574;BME280;66710;48.868;9.080;2023-07-22T03:23:41;97940.84;;;11.87;88.38
77574;BME280;66710;48.868;9.080;2023-07-22T03:26:06;97938.94;;;11.87;88.58
77574;BME280;66710;48.868;9.080;2023-07-22T03:28:32;97938.94;;;11.92;88.16
77574;BME280;66710;48.868;9.080;2023-07-22T03:30:57;97937.63;;;12.24;87.21
77574;BME280;66710;48.868;9.080;2023-07-22T03:33:22;97930.84;;;12.17;86.42
77574;BME280;66710;48.868;9.080;2023-07-22T03:35:48;97939.75;;;11.88;88.34
77574;BME280;66710;48.868;9.080;2023-07-22T03:38:13;97951.81;;;11.82;88.10
77574;BME280;66710;48.868;9.080;2023-07-22T03:40:38;97948.78;;;11.83;88.47
77574;BME280;66710;48.868;9.080;2023-07-22T03:43:04;97947.16;;;11.82;88.03
77574;BME280;66710;48.868;9.080;2023-07-22T03:45:29;97942.84;;;11.76;88.97
77574;BME280;66710;48.868;9.080;2023-07-22T03:47:59;97948.81;;;11.78;89.15
77574;BME280;66710;48.868;9.080;2023-07-22T03:50:26;97943.84;;;11.95;88.25
77574;BME280;66710;48.868;9.080;2023-07-22T03:52:51;97943.59;;;11.92;88.12
77574;BME280;66710;48.868;9.080;2023-07-22T03:55:17;97946.25;;;12.02;88.21
77574;BME280;66710;48.868;9.080;2023-07-22T03:57:44;97946.25;;;12.02;87.74
77574;BME280;66710;48.868;9.080;2023-07-22T04:00:10;97948.75;;;11.99;88.00
77574;BME280;66710;48.868;9.080;2023-07-22T04:02:35;97949.84;;;11.92;87.83
77574;BME280;66710;48.868;9.080;2023-07-22T04:05:00;97945.03;;;11.74;89.10
77574;BME280;66710;48.868;9.080;2023-07-22T04:07:26;97951.50;;;11.88;88.52
77574;BME280;66710;48.868;9.080;2023-07-22T04:09:51;97948.25;;;11.91;88.22
77574;BME280;66710;48.868;9.080;2023-07-22T04:12:17;97947.03;;;12.08;87.00
77574;BME280;66710;48.868;9.080;2023-07-22T04:14:42;97943.78;;;12.06;86.71
77574;BME280;66710;48.868;9.080;2023-07-22T04:17:07;97948.97;;;12.02;87.06
77574;BME280;66710;48.868;9.080;2023-07-22T04:19:33;97950.31;;;12.05;87.47
77574;BME280;66710;48.868;9.080;2023-07-22T04:21:59;97955.72;;;12.15;86.57
77574;BME280;66710;48.868;9.080;2023-07-22T04:24:31;97950.25;;;12.15;87.15
77574;BME280;66710;48.868;9.080;2023-07-22T04:26:57;97944.41;;;12.32;85.94
77574;BME280;66710;48.868;9.080;2023-07-22T04:29:22;97941.72;;;12.27;86.19
77574;BME280;66710;48.868;9.080;2023-07-22T04:31:47;97945.78;;;12.29;85.58
77574;BME280;66710;48.868;9.080;2023-07-22T04:34:13;97949.75;;;12.42;85.47
77574;BME280;66710;48.868;9.080;2023-07-22T04:36:38;97949.97;;;12.51;84.58
77574;BME280;66710;48.868;9.080;2023-07-22T04:39:04;97949.84;;;12.66;84.30
77574;BME280;66710;48.868;9.080;2023-07-22T04:41:33;97944.59;;;12.70;83.56
77574;BME280;66710;48.868;9.080;2023-07-22T04:43:58;97942.41;;;12.72;83.74
77574;BME280;66710;48.868;9.080;2023-07-22T04:46:27;97935.84;;;12.73;83.82
77574;BME280;66710;48.868;9.080;2023-07-22T04:48:56;97943.81;;;12.69;83.79
77574;BME280;66710;48.868;9.080;2023-07-22T04:51:23;97940.25;;;12.69;84.43
77574;BME280;66710;48.868;9.080;2023-07-22T04:53:48;97950.03;;;12.75;83.94
77574;BME280;66710;48.868;9.080;2023-07-22T04:56:14;97947.53;;;12.79;84.48
77574;BME280;66710;48.868;9.080;2023-07-22T04:58:39;97948.88;;;12.81;84.29
77574;BME280;66710;48.868;9.080;2023-07-22T05:01:04;97950.44;;;12.87;84.53
77574;BME280;66710;48.868;9.080;2023-07-22T05:03:30;97951.81;;;12.90;83.77
77574;BME280;66710;48.868;9.080;2023-07-22T05:05:55;97957.69;;;13.02;82.77
77574;BME280;66710;48.868;9.080;2023-07-22T05:08:23;97960.31;;;13.13;82.19
77574;BME280;66710;48.868;9.080;2023-07-22T05:10:48;97955.53;;;13.23;83.09
77574;BME280;66710;48.868;9.080;2023-07-22T05:13:13;97958.50;;;13.27;82.85
77574;BME280;66710;48.868;9.080;2023-07-22T05:15:42;97964.78;;;13.33;82.00
77574;BME280;66710;48.868;9.080;2023-07-22T05:18:07;97964.72;;;13.38;81.39
77574;BME280;66710;48.868;9.080;2023-07-22T05:20:33;97959.47;;;13.41;80.92
77574;BME280;66710;48.868;9.080;2023-07-22T05:22:58;97961.56;;;13.50;81.37
77574;BME280;66710;48.868;9.080;2023-07-22T05:25:23;97971.34;;;13.56;81.62
77574;BME280;66710;48.868;9.080;2023-07-22T05:27:49;97973.91;;;13.71;81.30
77574;BME280;66710;48.868;9.080;2023-07-22T05:30:14;97981.38;;;13.84;81.20
77574;BME280;66710;48.868;9.080;2023-07-22T05:32:40;97974.41;;;13.92;80.79
77574;BME280;66710;48.868;9.080;2023-07-22T05:35:05;97975.19;;;13.98;79.95
77574;BME280;66710;48.868;9.080;2023-07-22T05:37:31;97975.31;;;14.07;77.43
77574;BME280;66710;48.868;9.080;2023-07-22T05:39:57;97985.53;;;14.20;77.80
77574;BME280;66710;48.868;9.080;2023-07-22T05:42:23;97986.94;;;14.17;77.87
77574;BME280;66710;48.868;9.080;2023-07-22T05:44:48;97990.66;;;14.27;78.08
77574;BME280;66710;48.868;9.080;2023-07-22T05:47:14;97983.06;;;14.37;77.11
77574;BME280;66710;48.868;9.080;2023-07-22T05:49:40;97984.09;;;14.41;76.67
77574;BME280;66710;48.868;9.080;2023-07-22T05:52:06;97993.13;;;14.61;76.38
77574;BME280;66710;48.868;9.080;2023-07-22T05:54:31;97996.84;;;14.70;76.13
77574;BME280;66710;48.868;9.080;2023-07-22T05:56:56;97997.06;;;14.74;75.35
77574;BME280;66710;48.868;9.080;2023-07-22T05:59:22;97996.47;;;14.91;74.88
77574;BME280;66710;48.868;9.080;2023-07-22T06:01:47;97998.03;;;14.97;74.41
77574;BME280;66710;48.868;9.080;2023-07-22T06:04:12;97997.44;;;15.00;75.11
77574;BME280;66710;48.868;9.080;2023-07-22T06:06:38;97983.41;;;15.02;73.04
77574;BME280;66710;48.868;9.080;2023-07-22T06:09:03;97990.56;;;15.16;73.89
77574;BME280;66710;48.868;9.080;2023-07-22T06:11:30;97992.91;;;15.37;72.32
77574;BME280;66710;48.868;9.080;2023-07-22T06:13:55;97993.72;;;15.38;72.75
77574;BME280;66710;48.868;9.080;2023-07-22T06:16:21;97993.31;;;15.44;72.40
77574;BME280;66710;48.868;9.080;2023-07-22T06:18:47;97992.28;;;15.68;73.53
77574;BME280;66710;48.868;9.080;2023-07-22T06:21:12;97998.28;;;15.70;72.21
77574;BME280;66710;48.868;9.080;2023-07-22T06:23:38;97999.63;;;15.86;71.97
77574;BME280;66710;48.868;9.080;2023-07-22T06:26:03;98006.94;;;16.05;71.49
77574;BME280;66710;48.868;9.080;2023-07-22T06:28:28;98008.81;;;16.18;70.06
77574;BME280;66710;48.868;9.080;2023-07-22T06:30:54;98005.84;;;16.28;70.72
77574;BME280;66710;48.868;9.080;2023-07-22T06:33:19;98008.63;;;16.51;69.01
77574;BME280;66710;48.868;9.080;2023-07-22T06:35:45;98008.38;;;16.61;68.83
77574;BME280;66710;48.868;9.080;2023-07-22T06:38:10;98011.94;;;16.62;67.74
77574;BME280;66710;48.868;9.080;2023-07-22T06:40:36;98006.38;;;16.76;68.65
77574;BME280;66710;48.868;9.080;2023-07-22T06:43:01;98012.22;;;16.97;67.37
77574;BME280;66710;48.868;9.080;2023-07-22T06:45:27;98011.69;;;17.17;67.27
77574;BME280;66710;48.868;9.080;2023-07-22T06:47:52;98012.38;;;17.23;65.29
77574;BME280;66710;48.868;9.080;2023-07-22T06:50:18;98007.25;;;17.39;64.84
77574;BME280;66710;48.868;9.080;2023-07-22T06:52:43;98009.47;;;17.59;64.18
77574;BME280;66710;48.868;9.080;2023-07-22T06:55:09;98013.97;;;17.95;64.99
77574;BME280;66710;48.868;9.080;2023-07-22T06:57:34;98011.28;;;18.30;62.93
77574;BME280;66710;48.868;9.080;2023-07-22T07:00:00;98003.31;;;18.37;62.31
77574;BME280;66710;48.868;9.080;2023-07-22T07:02:26;98004.44;;;18.71;61.55
77574;BME280;66710;48.868;9.080;2023-07-22T07:04:52;98015.97;;;18.73;60.28
77574;BME280;66710;48.868;9.080;2023-07-22T07:07:17;98010.38;;;19.26;58.81
77574;BME280;66710;48.868;9.080;2023-07-22T07:09:42;98006.19;;;19.11;60.38
77574;BME280;66710;48.868;9.080;2023-07-22T07:12:08;98014.38;;;18.46;63.01
77574;BME280;66710;48.868;9.080;2023-07-22T07:14:34;98013.16;;;19.64;59.94
77574;BME280;66710;48.868;9.080;2023-07-22T07:17:01;98010.69;;;19.72;58.51
77574;BME280;66710;48.868;9.080;2023-07-22T07:19:27;98003.06;;;19.68;58.44
77574;BME280;66710;48.868;9.080;2023-07-22T07:21:52;98016.44;;;19.96;57.51
77574;BME280;66710;48.868;9.080;2023-07-22T07:24:18;98005.94;;;19.81;58.53
77574;BME280;66710;48.868;9.080;2023-07-22T07:26:44;98008.34;;;20.42;56.24
77574;BME280;66710;48.868;9.080;2023-07-22T07:29:10;98010.44;;;20.15;57.30
77574;BME280;66710;48.868;9.080;2023-07-22T07:31:36;98017.63;;;20.37;57.19
77574;BME280;66710;48.868;9.080;2023-07-22T07:34:01;98015.94;;;20.24;56.30
77574;BME280;66710;48.868;9.080;2023-07-22T07:36:27;98015.63;;;20.68;55.08
77574;BME280;66710;48.868;9.080;2023-07-22T07:38:52;98013.47;;;20.73;54.05
77574;BME280;66710;48.868;9.080;2023-07-22T07:41:17;98011.13;;;20.96;55.02
77574;BME280;66710;48.868;9.080;2023-07-22T07:43:43;98019.19;;;20.89;54.53
77574;BME280;66710;48.868;9.080;2023-07-22T07:46:25;98014.69;;;21.30;52.99
77574;BME280;66710;48.868;9.080;2023-07-22T07:48:53;98006.78;;;21.53;51.09
77574;BME280;66710;48.868;9.080;2023-07-22T07:51:20;98011.78;;;20.81;54.09
77574;BME280;66710;48.868;9.080;2023-07-22T07:53:46;98010.88;;;20.68;54.00
77574;BME280;66710;48.868;9.080;2023-07-22T07:56:16;97999.06;;;21.84;52.64
77574;BME280;66710;48.868;9.080;2023-07-22T07:58:42;98006.56;;;21.95;50.88
77574;BME280;66710;48.868;9.080;2023-07-22T08:01:08;98007.84;;;21.86;52.44
77574;BME280;66710;48.868;9.080;2023-07-22T08:03:34;98008.84;;;21.93;51.53
77574;BME280;66710;48.868;9.080;2023-07-22T08:06:01;98007.34;;;23.02;48.07
77574;BME280;66710;48.868;9.080;2023-07-22T08:08:26;98003.06;;;22.11;50.00
77574;BME280;66710;48.868;9.080;2023-07-22T08:13:27;98002.59;;;22.74;48.37
77574;BME280;66710;48.868;9.080;2023-07-22T08:15:55;98000.63;;;22.22;48.37
77574;BME280;66710;48.868;9.080;2023-07-22T08:18:21;98001.81;;;22.33;48.31
77574;BME280;66710;48.868;9.080;2023-07-22T08:20:46;98003.72;;;23.14;48.20
77574;BME280;66710;48.868;9.080;2023-07-22T08:23:13;97998.50;;;22.56;48.37
77574;BME280;66710;48.868;9.080;2023-07-22T08:25:38;98003.75;;;23.30;47.32
77574;BME280;66710;48.868;9.080;2023-07-22T08:28:03;97991.63;;;23.54;47.81
77574;BME280;66710;48.868;9.080;2023-07-22T08:30:29;98004.00;;;23.24;46.93
77574;BME280;66710;48.868;9.080;2023-07-22T08:32:54;97999.28;;;23.57;49.24
77574;BME280;66710;48.868;9.080;2023-07-22T08:35:19;97992.63;;;23.45;48.47
77574;BME280;66710;48.868;9.080;2023-07-22T08:37:45;97995.50;;;24.68;46.02
77574;BME280;66710;48.868;9.080;2023-07-22T08:40:12;97997.41;;;24.83;44.07
77574;BME280;66710;48.868;9.080;2023-07-22T08:42:38;97990.78;;;24.72;43.99
77574;BME280;66710;48.868;9.080;2023-07-22T08:45:05;97989.28;;;24.39;44.76
77574;BME280;66710;48.868;9.080;2023-07-22T08:47:32;97989.78;;;24.25;43.53
77574;BME280;66710;48.868;9.080;2023-07-22T08:50:01;97991.97;;;22.64;47.77
77574;BME280;66710;48.868;9.080;2023-07-22T08:52:26;98001.78;;;22.21;48.42
77574;BME280;66710;48.868;9.080;2023-07-22T08:54:52;97993.38;;;22.05;47.61
77574;BME280;66710;48.868;9.080;2023-07-22T08:57:18;97992.91;;;22.03;47.34
77574;BME280;66710;48.868;9.080;2023-07-22T08:59:44;97984.53;;;24.04;42.83
77574;BME280;66710;48.868;9.080;2023-07-22T09:02:12;97994.91;;;24.58;43.47
77574;BME280;66710;48.868;9.080;2023-07-22T09:04:39;97994.69;;;23.80;45.61
77574;BME280;66710;48.868;9.080;2023-07-22T09:07:06;97987.34;;;23.40;44.67
77574;BME280;66710;48.868;9.080;2023-07-22T09:09:34;97991.28;;;23.39;47.40
77574;BME280;66710;48.868;9.080;2023-07-22T09:12:00;97995.19;;;23.22;46.25
77574;BME280;66710;48.868;9.080;2023-07-22T09:14:26;97989.19;;;22.64;47.71
77574;BME280;66710;48.868;9.080;2023-07-22T09:16:53;97996.69;;;22.35;49.07
77574;BME280;66710;48.868;9.080;2023-07-22T09:19:18;97994.56;;;22.57;48.56
77574;BME280;66710;48.868;9.080;2023-07-22T09:21:44;97999.50;;;23.20;46.55
77574;BME280;66710;48.868;9.080;2023-07-22T09:24:25;97999.44;;;23.48;46.55
77574;BME280;66710;48.868;9.080;2023-07-22T09:26:51;97993.22;;;22.38;46.28
77574;BME280;66710;48.868;9.080;2023-07-22T09:29:17;97994.69;;;23.04;46.06
77574;BME280;66710;48.868;9.080;2023-07-22T09:31:51;97989.81;;;22.85;46.10
77574;BME280;66710;48.868;9.080;2023-07-22T09:34:17;97993.34;;;22.70;46.72
77574;BME280;66710;48.868;9.080;2023-07-22T09:36:54;97984.03;;;22.50;46.73
77574;BME280;66710;48.868;9.080;2023-07-22T09:39:20;97989.06;;;22.32;46.57
77574;BME280;66710;48.868;9.080;2023-07-22T09:41:46;97993.59;;;22.65;46.55
77574;BME280;66710;48.868;9.080;2023-07-22T09:44:12;97992.69;;;21.95;47.63
77574;BME280;66710;48.868;9.080;2023-07-22T09:46:38;97991.16;;;22.35;46.07
77574;BME280;66710;48.868;9.080;2023-07-22T09:49:05;97981.94;;;22.59;45.38
77574;BME280;66710;48.868;9.080;2023-07-22T09:51:40;97979.09;;;23.28;44.72
77574;BME280;66710;48.868;9.080;2023-07-22T09:54:06;97972.66;;;24.07;42.26
77574;BME280;66710;48.868;9.080;2023-07-22T09:56:43;97964.59;;;24.02;43.78
77574;BME280;66710;48.868;9.080;2023-07-22T09:59:09;97974.03;;;23.97;43.95
77574;BME280;66710;48.868;9.080;2023-07-22T10:01:38;97974.09;;;24.36;41.65
77574;BME280;66710;48.868;9.080;2023-07-22T10:04:05;97967.66;;;24.32;41.81
77574;BME280;66710;48.868;9.080;2023-07-22T10:06:31;97969.53;;;24.64;40.70
77574;BME280;66710;48.868;9.080;2023-07-22T10:09:01;97968.56;;;23.69;40.07
77574;BME280;66710;48.868;9.080;2023-07-22T10:11:27;97967.94;;;23.76;36.77
77574;BME280;66710;48.868;9.080;2023-07-22T10:13:55;97968.53;;;24.95;34.84
77574;BME280;66710;48.868;9.080;2023-07-22T10:16:22;97968.66;;;25.68;34.44
77574;BME280;66710;48.868;9.080;2023-07-22T10:18:48;97961.66;;;24.89;35.65
77574;BME280;66710;48.868;9.080;2023-07-22T10:21:13;97969.81;;;23.72;36.70
77574;BME280;66710;48.868;9.080;2023-07-22T10:23:40;97966.66;;;23.73;37.95
77574;BME280;66710;48.868;9.080;2023-07-22T10:26:06;97972.78;;;23.31;38.12
77574;BME280;66710;48.868;9.080;2023-07-22T10:28:32;97964.44;;;23.31;36.96
77574;BME280;66710;48.868;9.080;2023-07-22T10:30:58;97971.00;;;23.87;36.38
77574;BME280;66710;48.868;9.080;2023-07-22T10:33:24;97970.78;;;22.71;37.67
77574;BME280;66710;48.868;9.080;2023-07-22T10:36:08;97974.06;;;22.61;38.51
77574;BME280;66710;48.868;9.080;2023-07-22T10:38:35;97965.59;;;23.78;36.80
77574;BME280;66710;48.868;9.080;2023-07-22T10:41:01;97959.69;;;24.89;36.41
77574;BME280;66710;48.868;9.080;2023-07-22T10:43:34;97963.94;;;24.83;36.92
77574;BME280;66710;48.868;9.080;2023-07-22T10:46:11;97957.25;;;24.88;34.55
77574;BME280;66710;48.868;9.080;2023-07-22T10:48:39;97949.81;;;24.17;36.19
77574;BME280;66710;48.868;9.080;2023-07-22T10:51:09;97953.94;;;25.71;35.17
77574;BME280;66710;48.868;9.080;2023-07-22T10:53:41;97957.06;;;24.57;35.54
77574;BME280;66710;48.868;9.080;2023-07-22T11:04:12;97947.66;;;24.85;34.35
77574;BME280;66710;48.868;9.080;2023-07-22T11:14:49;97931.59;;;25.44;31.41
77574;BME280;66710;48.868;9.080;2023-07-22T11:17:15;97933.72;;;25.28;32.41
77574;BME280;66710;48.868;9.080;2023-07-22T11:19:41;97923.50;;;23.79;35.51
77574;BME280;66710;48.868;9.080;2023-07-22T11:22:06;97929.84;;;23.44;35.82
77574;BME280;66710;48.868;9.080;2023-07-22T11:24:33;97928.69;;;23.14;37.27
77574;BME280;66710;48.868;9.080;2023-07-22T11:27:03;97927.69;;;23.38;36.33
77574;BME280;66710;48.868;9.080;2023-07-22T11:29:29;97928.69;;;23.97;36.58
77574;BME280;66710;48.868;9.080;2023-07-22T11:31:54;97917.81;;;24.27;37.46
77574;BME280;66710;48.868;9.080;2023-07-22T11:34:21;97926.44;;;23.35;38.17
77574;BME280;66710;48.868;9.080;2023-07-22T11:36:48;97918.53;;;24.44;36.16
77574;BME280;66710;48.868;9.080;2023-07-22T11:39:16;97904.22;;;26.67;34.39
77574;BME280;66710;48.868;9.080;2023-07-22T11:41:43;97902.00;;;27.73;31.17
77574;BME280;66710;48.868;9.080;2023-07-22T11:44:12;97914.53;;;24.41;36.04
77574;BME280;66710;48.868;9.080;2023-07-22T11:46:55;97901.16;;;25.35;34.44
77574;BME280;66710;48.868;9.080;2023-07-22T11:49:28;97899.56;;;24.69;35.08
77574;BME280;66710;48.868;9.080;2023-07-22T11:52:04;97892.59;;;26.01;32.82
77574;BME280;66710;48.868;9.080;2023-07-22T11:54:32;97877.94;;;25.81;32.30
77574;BME280;66710;48.868;9.080;2023-07-22T11:57:15;97886.16;;;25.44;34.87
77574;BME280;66710;48.868;9.080;2023-07-22T12:02:14;97874.16;;;25.66;34.03
77574;BME280;66710;48.868;9.080;2023-07-22T12:04:42;97879.22;;;26.82;33.36
77574;BME280;66710;48.868;9.080;2023-07-22T12:07:21;97871.38;;;26.98;31.91
77574;BME280;66710;48.868;9.080;2023-07-22T12:09:49;97861.22;;;26.11;32.33
77574;BME280;66710;48.868;9.080;2023-07-22T12:12:14;97865.91;;;26.04;33.24
77574;BME280;66710;48.868;9.080;2023-07-22T12:14:41;97868.19;;;25.95;33.53
77574;BME280;66710;48.868;9.080;2023-07-22T12:17:08;97865.25;;;25.11;33.58
77574;BME280;66710;48.868;9.080;2023-07-22T12:19:34;97862.47;;;26.14;32.95
77574;BME280;66710;48.868;9.080;2023-07-22T12:21:59;97860.09;;;25.59;33.77
77574;BME280;66710;48.868;9.080;2023-07-22T12:24:27;97866.94;;;24.69;32.08
77574;BME280;66710;48.868;9.080;2023-07-22T12:26:52;97868.41;;;24.44;33.47
77574;BME280;66710;48.868;9.080;2023-07-22T12:29:17;97855.88;;;26.63;31.27
77574;BME280;66710;48.868;9.080;2023-07-22T12:31:43;97847.94;;;26.69;30.18
77574;BME280;66710;48.868;9.080;2023-07-22T12:34:08;97842.66;;;26.26;31.87
77574;BME280;66710;48.868;9.080;2023-07-22T12:36:34;97842.84;;;26.44;30.31
77574;BME280;66710;48.868;9.080;2023-07-22T12:38:59;97841.69;;;25.28;33.17
77574;BME280;66710;48.868;9.080;2023-07-22T12:41:24;97838.09;;;25.54;33.52
77574;BME280;66710;48.868;9.080;2023-07-22T12:43:50;97851.88;;;24.74;34.16
77574;BME280;66710;48.868;9.080;2023-07-22T12:46:16;97846.13;;;25.09;34.08
77574;BME280;66710;48.868;9.080;2023-07-22T12:48:42;97842.84;;;24.81;34.82
77574;BME280;66710;48.868;9.080;2023-07-22T12:51:07;97838.84;;;24.78;34.40
77574;BME280;66710;48.868;9.080;2023-07-22T12:53:34;97845.91;;;24.33;35.42
77574;BME280;66710;48.868;9.080;2023-07-22T12:56:00;97849.28;;;24.85;35.25
77574;BME280;66710;48.868;9.080;2023-07-22T12:58:27;97837.13;;;25.20;35.21
77574;BME280;66710;48.868;9.080;2023-07-22T13:00:53;97837.78;;;26.20;34.12
77574;BME280;66710;48.868;9.080;2023-07-22T13:03:18;97829.97;;;26.36;32.17
77574;BME280;66710;48.868;9.080;2023-07-22T13:05:43;97825.53;;;25.17;35.47
77574;BME280;66710;48.868;9.080;2023-07-22T13:08:09;97831.91;;;26.28;31.89
77574;BME280;66710;48.868;9.080;2023-07-22T13:10:34;97817.06;;;26.58;32.07
77574;BME280;66710;48.868;9.080;2023-07-22T13:13:02;97822.16;;;26.49;32.92
77574;BME280;66710;48.868;9.080;2023-07-22T13:15:28;97815.34;;;27.98;31.46
77574;BME280;66710;48.868;9.080;2023-07-22T13:17:53;97823.59;;;25.71;33.37